Time;durP1;ratioP1;P1;durP2;ratioP2;P2;SDS_P1;SDS_P2;PMS_P1;PMS_P2;Temp;Humidity;BMP_temperature;BMP_pressure;BME280_temperature;BME280_humidity;BME280_pressure;Samples;Min_cycle;Max_cycle;Signal;HPM_P1;HPM_P2
2021/11/23 05:01:05;;;;;;;13.75;9.38;;;6.90;99.90;;;;;;5703469;23;20281;-71
2021/11/23 05:03:32;;;;;;;15.15;9.13;;;6.90;99.90;;;;;;4993845;28;21520;-71
2021/11/23 05:05:58;;;;;;;22.40;10.57;;;6.90;99.90;;;;;;4998793;28;20207;-71
2021/11/23 05:08:25;;;;;;;15.90;10.77;;;6.90;99.90;;;;;;5003177;28;20204;-72
2021/11/23 05:10:52;;;;;;;16.08;10.23;;;6.90;99.90;;;;;;4989555;28;20217;-71
2021/11/23 05:15:45;;;;;;;15.15;10.00;;;6.90;99.90;;;;;;5031391;23;20334;-72
2021/11/23 05:18:14;;;;;;;16.40;9.40;;;6.90;99.90;;;;;;4999725;28;20211;-72
2021/11/23 05:20:40;;;;;;;15.65;10.10;;;6.90;99.90;;;;;;5011742;28;20258;-72
2021/11/23 05:23:07;;;;;;;16.80;10.82;;;6.90;99.90;;;;;;4994446;28;20688;-72
2021/11/23 05:25:34;;;;;;;14.23;10.20;;;6.90;99.90;;;;;;4993750;28;20290;-72
2021/11/23 05:28:01;;;;;;;16.85;10.75;;;6.90;99.90;;;;;;5006499;28;20290;-72
2021/11/23 05:30:27;;;;;;;17.95;10.05;;;7.00;99.90;;;;;;4993423;28;20278;-71
2021/11/23 05:32:54;;;;;;;15.25;9.48;;;7.00;99.90;;;;;;5006181;28;20940;-71
2021/11/23 05:35:22;;;;;;;23.48;10.52;;;7.00;99.90;;;;;;4994045;28;20638;-72
2021/11/23 05:37:49;;;;;;;19.20;11.00;;;7.10;99.90;;;;;;5008603;28;20203;-72
2021/11/23 05:40:15;;;;;;;20.27;10.18;;;7.10;99.90;;;;;;5005080;28;20207;-71
2021/11/23 05:42:42;;;;;;;16.55;10.07;;;7.10;99.90;;;;;;4992963;28;20622;-72
2021/11/23 05:45:12;;;;;;;24.30;10.43;;;7.10;99.90;;;;;;4996059;28;20266;-71
2021/11/23 05:47:38;;;;;;;13.85;9.75;;;7.20;99.90;;;;;;5005544;28;20195;-71
2021/11/23 05:50:06;;;;;;;15.32;10.10;;;7.20;99.90;;;;;;4999953;28;20273;-71
2021/11/23 05:52:34;;;;;;;18.00;10.10;;;7.20;99.90;;;;;;5007515;28;20199;-71
2021/11/23 05:55:01;;;;;;;17.05;10.43;;;7.20;99.90;;;;;;4992913;28;20232;-71
2021/11/23 05:57:29;;;;;;;19.20;9.95;;;7.20;99.90;;;;;;4992241;28;20265;-71
2021/11/23 05:59:56;;;;;;;14.10;9.32;;;7.20;99.90;;;;;;5005081;28;20265;-71
2021/11/23 06:02:22;;;;;;;18.13;9.95;;;7.20;99.90;;;;;;5009649;28;20202;-72
2021/11/23 06:04:49;;;;;;;16.70;10.27;;;7.20;99.90;;;;;;4992764;28;20227;-71
2021/11/23 06:07:16;;;;;;;14.00;9.50;;;7.20;99.90;;;;;;5010719;28;20269;-71
2021/11/23 06:09:43;;;;;;;20.17;10.75;;;7.20;99.90;;;;;;4992663;28;20216;-72
2021/11/23 06:12:10;;;;;;;17.77;10.50;;;7.20;99.90;;;;;;4993503;28;20683;-72
2021/11/23 06:14:38;;;;;;;15.98;10.07;;;7.20;99.90;;;;;;5008956;28;20232;-72
2021/11/23 06:17:07;;;;;;;14.10;10.00;;;7.10;99.90;;;;;;5008741;28;20644;-71
2021/11/23 06:19:34;;;;;;;17.67;10.60;;;7.20;99.90;;;;;;4994563;28;20212;-72
2021/11/23 06:22:01;;;;;;;20.55;10.93;;;7.20;99.90;;;;;;5007017;28;20210;-71
2021/11/23 06:24:27;;;;;;;15.20;9.15;;;7.20;99.90;;;;;;4995304;28;20254;-71
2021/11/23 06:26:56;;;;;;;16.08;10.55;;;7.20;99.90;;;;;;5005212;28;20265;-71
2021/11/23 06:29:22;;;;;;;19.30;9.60;;;7.30;99.90;;;;;;5011789;28;20644;-71
2021/11/23 06:31:49;;;;;;;17.52;9.50;;;7.30;99.90;;;;;;4998432;28;20240;-72
2021/11/23 06:34:16;;;;;;;17.17;9.18;;;7.30;99.90;;;;;;5005674;28;20270;-71
2021/11/23 06:36:42;;;;;;;18.13;10.90;;;7.30;99.90;;;;;;5009749;28;20672;-71
2021/11/23 06:39:09;;;;;;;15.02;9.18;;;7.30;99.90;;;;;;5003779;28;20208;-71
2021/11/23 06:41:36;;;;;;;19.33;9.77;;;7.30;99.90;;;;;;5010807;28;20667;-71
2021/11/23 06:44:04;;;;;;;14.45;9.50;;;7.30;99.90;;;;;;5011848;28;20238;-72
2021/11/23 06:46:31;;;;;;;19.20;10.57;;;7.30;99.90;;;;;;5002951;28;20204;-71
2021/11/23 06:48:58;;;;;;;16.55;9.93;;;7.30;99.90;;;;;;4991373;28;20224;-72
2021/11/23 06:51:25;;;;;;;16.17;10.02;;;7.30;99.90;;;;;;4990994;28;20196;-71
2021/11/23 06:53:52;;;;;;;19.45;10.75;;;7.30;99.90;;;;;;4991529;28;20215;-71
2021/11/23 06:56:19;;;;;;;16.17;9.65;;;7.40;99.90;;;;;;4991590;28;20203;-71
2021/11/23 06:58:45;;;;;;;16.20;8.60;;;7.30;99.90;;;;;;4992078;28;20306;-71
2021/11/23 07:01:14;;;;;;;16.95;10.00;;;7.40;99.90;;;;;;4990629;28;20216;-71
2021/11/23 07:03:41;;;;;;;15.55;9.00;;;7.40;99.90;;;;;;4994712;28;20300;-71
2021/11/23 07:06:07;;;;;;;15.85;9.73;;;7.40;99.90;;;;;;5010480;28;20208;-70
2021/11/23 07:08:35;;;;;;;14.73;9.48;;;7.40;99.90;;;;;;5006060;28;20207;-70
2021/11/23 07:11:05;;;;;;;20.65;11.25;;;7.40;99.90;;;;;;5007783;28;20306;-71
2021/11/23 07:13:31;;;;;;;13.95;8.73;;;7.40;99.90;;;;;;5010251;28;20199;-70
2021/11/23 07:15:58;;;;;;;14.02;9.90;;;7.40;99.90;;;;;;5009629;28;20277;-70
2021/11/23 07:18:26;;;;;;;16.63;9.27;;;7.40;99.90;;;;;;5010879;28;20265;-70
2021/11/23 07:20:54;;;;;;;12.27;8.73;;;7.40;99.90;;;;;;5009224;28;20277;-70
2021/11/23 07:23:21;;;;;;;17.25;9.93;;;7.40;99.90;;;;;;5010828;28;20207;-70
2021/11/23 07:25:48;;;;;;;14.35;8.90;;;7.40;99.90;;;;;;4992320;28;20224;-70
2021/11/23 07:28:14;;;;;;;17.55;11.52;;;7.40;99.90;;;;;;4999322;28;20211;-70
2021/11/23 07:30:41;;;;;;;14.85;9.40;;;7.50;99.90;;;;;;5001507;28;20215;-71
2021/11/23 07:33:08;;;;;;;16.67;9.90;;;7.40;99.90;;;;;;5009272;28;20647;-71
2021/11/23 07:35:36;;;;;;;19.75;9.32;;;7.40;99.90;;;;;;4997984;28;20599;-70
2021/11/23 07:38:03;;;;;;;12.48;9.63;;;7.50;99.90;;;;;;4999639;28;20641;-70
2021/11/23 07:40:30;;;;;;;15.57;10.18;;;7.40;99.90;;;;;;4995224;28;20664;-70
2021/11/23 07:42:56;;;;;;;19.67;9.13;;;7.50;99.90;;;;;;4998523;28;20207;-70
2021/11/23 07:45:24;;;;;;;14.18;10.25;;;7.50;99.90;;;;;;5000262;28;20729;-70
2021/11/23 07:47:51;;;;;;;24.50;9.32;;;7.50;99.90;;;;;;5009118;28;20553;-70
2021/11/23 07:50:17;;;;;;;11.32;8.07;;;7.50;99.90;;;;;;5010646;28;20207;-71
2021/11/23 07:52:46;;;;;;;19.67;7.78;;;7.50;99.90;;;;;;5010483;28;20199;-71
2021/11/23 07:55:12;;;;;;;8.13;6.78;;;7.60;99.90;;;;;;5010909;28;20589;-70
2021/11/23 07:57:39;;;;;;;12.18;7.85;;;7.60;99.90;;;;;;4999388;28;20195;-70
2021/11/23 08:00:07;;;;;;;11.93;7.57;;;7.60;99.90;;;;;;5005739;28;20214;-70
2021/11/23 08:02:34;;;;;;;16.15;10.60;;;7.70;99.90;;;;;;5007540;28;20273;-71
2021/11/23 08:05:00;;;;;;;11.32;6.63;;;7.60;99.90;;;;;;5010087;28;20285;-70
2021/11/23 08:07:28;;;;;;;10.15;6.25;;;7.60;99.90;;;;;;5010005;28;20710;-70
2021/11/23 08:09:56;;;;;;;14.02;7.15;;;7.70;99.90;;;;;;4994481;28;20259;-70
2021/11/23 08:12:22;;;;;;;9.50;6.60;;;7.70;99.90;;;;;;5013634;28;20198;-71
2021/11/23 08:14:49;;;;;;;13.10;7.65;;;7.70;99.90;;;;;;5004908;28;20315;-71
2021/11/23 08:17:16;;;;;;;9.50;6.65;;;7.70;99.90;;;;;;4998581;28;20281;-73
2021/11/23 08:19:42;;;;;;;12.73;6.60;;;7.80;99.90;;;;;;5012093;28;20288;-71
2021/11/23 08:22:09;;;;;;;11.02;6.93;;;7.80;99.90;;;;;;5013987;28;20211;-71
2021/11/23 08:24:35;;;;;;;8.27;5.70;;;7.80;99.90;;;;;;5010095;28;20564;-71
2021/11/23 08:27:04;;;;;;;10.07;6.20;;;7.80;99.90;;;;;;5007667;28;20258;-71
2021/11/23 08:29:30;;;;;;;10.45;6.45;;;7.80;99.90;;;;;;5013957;28;20207;-71
2021/11/23 08:31:57;;;;;;;9.35;7.15;;;7.80;99.90;;;;;;5013157;28;20813;-71
2021/11/23 08:34:24;;;;;;;10.10;6.20;;;7.90;99.90;;;;;;5013750;28;20235;-71
2021/11/23 08:36:51;;;;;;;9.10;6.20;;;7.90;99.90;;;;;;4994376;28;20211;-70
2021/11/23 08:39:19;;;;;;;10.02;6.13;;;7.90;99.90;;;;;;5008331;28;20341;-70
2021/11/23 08:41:47;;;;;;;9.85;6.70;;;8.00;99.90;;;;;;4998374;28;20212;-70
2021/11/23 08:44:15;;;;;;;13.70;6.72;;;8.00;99.90;;;;;;5006707;28;20238;-70
2021/11/23 08:46:42;;;;;;;8.07;5.43;;;8.10;99.90;;;;;;4996055;28;20208;-71
2021/11/23 08:49:08;;;;;;;11.45;6.30;;;8.00;99.90;;;;;;5002647;28;20218;-71
2021/11/23 08:51:37;;;;;;;11.48;6.18;;;8.10;99.90;;;;;;5012446;28;20576;-71
2021/11/23 08:54:05;;;;;;;11.73;6.15;;;8.10;99.90;;;;;;5013961;28;20223;-70
2021/11/23 08:56:35;;;;;;;8.48;5.57;;;8.10;99.90;;;;;;5013623;28;20215;-71
2021/11/23 08:59:04;;;;;;;7.47;5.85;;;8.10;99.90;;;;;;5003991;28;20253;-71
2021/11/23 09:01:32;;;;;;;14.77;6.40;;;8.10;99.90;;;;;;5006487;28;20204;-70
2021/11/23 09:04:03;;;;;;;13.20;5.57;;;8.10;99.90;;;;;;5005357;28;20274;-70
2021/11/23 09:06:30;;;;;;;11.55;6.47;;;8.10;99.90;;;;;;5008370;28;20606;-70
2021/11/23 09:08:58;;;;;;;7.78;5.95;;;8.10;99.90;;;;;;5006568;28;20210;-71
2021/11/23 09:11:25;;;;;;;14.18;6.80;;;8.00;99.90;;;;;;5010775;28;20204;-71
2021/11/23 09:13:54;;;;;;;8.63;5.65;;;8.00;99.90;;;;;;5006622;28;20598;-71
2021/11/23 09:16:20;;;;;;;10.60;4.90;;;8.00;99.90;;;;;;4996744;28;20754;-71
2021/11/23 09:18:48;;;;;;;13.55;5.15;;;8.00;99.90;;;;;;5022740;28;20207;-72
2021/11/23 09:21:16;;;;;;;10.02;6.05;;;8.00;99.90;;;;;;4993149;28;20207;-72
2021/11/23 09:23:42;;;;;;;12.65;6.10;;;8.00;99.90;;;;;;5017939;28;20333;-72
2021/11/23 09:26:10;;;;;;;14.15;6.07;;;8.10;99.90;;;;;;4997629;28;20327;-71
2021/11/23 09:28:36;;;;;;;11.02;5.68;;;8.20;99.90;;;;;;5005111;28;20203;-72
2021/11/23 09:31:03;;;;;;;9.63;5.70;;;8.20;99.90;;;;;;5010879;28;20211;-72
2021/11/23 09:33:30;;;;;;;11.70;5.95;;;8.30;99.90;;;;;;4996983;28;20211;-71
2021/11/23 09:35:58;;;;;;;9.98;5.32;;;8.30;99.90;;;;;;5017339;28;20221;-71
2021/11/23 09:38:25;;;;;;;7.28;5.35;;;8.30;99.90;;;;;;5022504;28;20207;-72
2021/11/23 09:40:52;;;;;;;12.05;5.43;;;8.40;99.90;;;;;;4998240;28;20230;-71
2021/11/23 09:43:19;;;;;;;14.68;6.50;;;8.40;99.90;;;;;;4993854;28;20208;-70
2021/11/23 09:45:46;;;;;;;10.80;5.55;;;8.40;99.90;;;;;;5008675;28;20227;-71
2021/11/23 09:48:13;;;;;;;9.93;5.18;;;8.50;99.90;;;;;;5012921;28;20214;-70
2021/11/23 09:50:41;;;;;;;10.02;6.78;;;8.50;99.90;;;;;;4997034;28;20636;-72
2021/11/23 09:53:10;;;;;;;9.15;5.70;;;8.60;99.90;;;;;;4998325;28;20299;-71
2021/11/23 09:55:38;;;;;;;7.03;4.60;;;8.60;99.90;;;;;;4993568;28;20226;-71
2021/11/23 09:58:05;;;;;;;8.93;4.88;;;8.60;99.90;;;;;;4995830;28;20254;-70
2021/11/23 10:00:34;;;;;;;9.30;5.03;;;8.80;99.90;;;;;;5005185;28;20261;-71
2021/11/23 10:03:07;;;;;;;6.13;5.53;;;8.80;99.90;;;;;;5011418;28;20554;-71
2021/11/23 10:05:37;;;;;;;9.65;4.95;;;8.90;99.90;;;;;;5012159;28;20227;-71
2021/11/23 10:08:11;;;;;;;7.22;4.00;;;9.00;99.90;;;;;;5011521;28;20203;-72
2021/11/23 10:10:43;;;;;;;6.65;3.92;;;9.00;99.90;;;;;;5011991;28;20732;-70
2021/11/23 10:13:10;;;;;;;9.80;3.42;;;9.00;99.90;;;;;;5012408;28;20587;-71
2021/11/23 10:15:41;;;;;;;6.40;3.80;;;9.10;99.90;;;;;;5011993;28;20234;-71
2021/11/23 10:18:11;;;;;;;4.03;3.70;;;9.20;99.90;;;;;;5011509;28;20222;-70
2021/11/23 10:20:40;;;;;;;8.20;3.58;;;9.20;99.90;;;;;;5005827;28;20665;-71
2021/11/23 10:23:18;;;;;;;3.92;3.20;;;9.20;99.90;;;;;;4992674;28;20212;-70
2021/11/23 10:25:46;;;;;;;6.57;3.40;;;9.20;99.90;;;;;;4992128;28;20227;-70
2021/11/23 10:28:13;;;;;;;7.22;3.15;;;9.20;99.90;;;;;;4992303;28;20641;-71
2021/11/23 10:30:41;;;;;;;3.67;3.05;;;9.30;99.90;;;;;;4991915;28;20250;-71
2021/11/23 10:33:09;;;;;;;4.80;3.53;;;9.40;99.90;;;;;;4991889;28;20593;-71
2021/11/23 10:35:38;;;;;;;4.05;3.20;;;9.40;99.90;;;;;;5008684;28;20223;-70
2021/11/23 10:38:07;;;;;;;5.00;2.80;;;9.50;99.90;;;;;;5011742;28;20293;-71
2021/11/23 10:40:37;;;;;;;2.25;2.15;;;9.50;99.90;;;;;;5011505;28;20214;-70
2021/11/23 10:43:06;;;;;;;4.50;2.90;;;9.50;99.90;;;;;;5010910;28;20242;-71
2021/11/23 10:45:37;;;;;;;5.72;2.80;;;9.50;99.90;;;;;;5002231;28;20230;-71
2021/11/23 10:48:05;;;;;;;4.82;2.72;;;9.50;99.90;;;;;;5007791;28;20264;-70
2021/11/23 10:50:33;;;;;;;4.32;2.90;;;9.50;99.90;;;;;;5009984;28;20630;-71
2021/11/23 10:53:05;;;;;;;2.70;2.53;;;9.50;99.90;;;;;;5011468;28;20214;-71
2021/11/23 10:55:36;;;;;;;2.85;2.72;;;9.50;99.90;;;;;;5011578;28;20227;-71
2021/11/23 10:58:06;;;;;;;2.50;2.25;;;9.40;99.90;;;;;;5009788;28;20290;-71
2021/11/23 11:00:35;;;;;;;3.63;2.67;;;9.50;99.90;;;;;;4993761;28;20140;-72
2021/11/23 11:03:02;;;;;;;3.88;2.50;;;9.50;99.90;;;;;;5008506;28;20285;-71
2021/11/23 11:05:31;;;;;;;2.42;2.20;;;9.50;99.90;;;;;;5011348;28;20326;-72
2021/11/23 11:07:58;;;;;;;4.65;2.80;;;9.50;99.90;;;;;;5008833;28;20208;-71
2021/11/23 11:10:26;;;;;;;2.22;2.13;;;9.50;99.90;;;;;;5010990;28;20293;-71
2021/11/23 11:12:54;;;;;;;2.40;2.28;;;9.50;99.90;;;;;;5010788;28;20211;-71
2021/11/23 11:15:27;;;;;;;3.90;1.73;;;9.50;99.90;;;;;;5007045;28;20856;-71
2021/11/23 11:17:54;;;;;;;3.55;2.22;;;9.60;99.90;;;;;;5004467;28;20298;-71
2021/11/23 11:20:34;;;;;;;3.65;3.38;;;9.60;99.90;;;;;;4992759;28;20207;-71
2021/11/23 11:23:06;;;;;;;2.00;1.80;;;9.70;99.90;;;;;;4998892;28;20838;-72
2021/11/23 11:26:09;;;;;;;2.05;1.95;;;9.70;99.90;;;;;;4993992;28;20324;-72
2021/11/23 11:28:52;;;;;;;5.22;2.83;;;9.80;99.90;;;;;;4984096;28;20253;-72
2021/11/23 11:31:43;;;;;;;2.28;1.73;;;9.80;99.90;;;;;;5009118;28;20249;-72
2021/11/23 11:34:31;;;;;;;4.00;3.25;;;9.80;99.90;;;;;;4991364;28;20309;-71
2021/11/23 11:37:05;;;;;;;2.30;2.20;;;9.80;99.90;;;;;;4994548;28;20228;-71
2021/11/23 11:39:58;;;;;;;1.30;1.17;;;9.90;99.90;;;;;;4991113;28;20211;-72
2021/11/23 11:42:50;;;;;;;2.65;2.38;;;9.90;99.90;;;;;;4997722;28;20226;-74
2021/11/23 11:45:22;;;;;;;3.55;2.20;;;10.00;99.90;;;;;;4995788;28;20233;-74
2021/11/23 11:47:51;;;;;;;1.73;1.40;;;10.10;99.90;;;;;;5006290;28;20579;-75
2021/11/23 11:50:26;;;;;;;2.28;2.28;;;10.10;99.90;;;;;;5000796;28;20656;-74
2021/11/23 11:53:14;;;;;;;3.92;3.63;;;10.10;99.90;;;;;;5004680;28;20202;-74
2021/11/23 11:55:50;;;;;;;13.55;2.40;;;10.10;99.90;;;;;;5001187;28;20568;-74
2021/11/23 11:58:48;;;;;;;6.78;6.15;;;10.20;99.90;;;;;;4995932;28;20210;-74
2021/11/23 12:01:34;;;;;;;3.08;0.95;;;10.20;99.90;;;;;;5003082;28;20234;-74
2021/11/23 12:04:11;;;;;;;3.42;1.23;;;10.20;99.90;;;;;;4998350;28;20700;-75
2021/11/23 12:07:06;;;;;;;1.88;1.67;;;10.20;99.90;;;;;;4995304;28;20314;-75
2021/11/23 12:09:35;;;;;;;1.60;1.50;;;10.20;99.90;;;;;;5001922;28;20727;-74
2021/11/23 12:12:37;;;;;;;3.00;2.13;;;10.10;99.90;;;;;;5008332;28;20227;-74
2021/11/23 12:15:16;;;;;;;1.33;1.00;;;10.00;99.90;;;;;;5007825;28;20234;-73
2021/11/23 12:18:06;;;;;;;2.67;2.10;;;10.00;99.90;;;;;;5004874;28;20206;-73
2021/11/23 12:20:48;;;;;;;1.60;1.60;;;10.00;99.90;;;;;;5004882;28;20274;-73
2021/11/23 12:23:17;;;;;;;2.78;2.13;;;9.90;99.90;;;;;;5011064;28;20277;-72
2021/11/23 12:25:56;;;;;;;5.38;3.20;;;9.90;99.90;;;;;;5010961;28;20297;-72
2021/11/23 12:28:25;;;;;;;7.45;2.20;;;9.90;99.90;;;;;;5001579;28;20203;-71
2021/11/23 12:30:52;;;;;;;3.70;1.85;;;9.90;99.90;;;;;;5005325;28;20204;-72
2021/11/23 12:33:20;;;;;;;4.35;2.20;;;9.90;99.90;;;;;;5011356;28;20214;-70
2021/11/23 12:35:48;;;;;;;6.78;3.45;;;9.90;99.90;;;;;;5010718;28;20230;-65
2021/11/23 12:38:26;;;;;;;4.57;2.03;;;9.90;99.90;;;;;;5010482;28;20210;-71
2021/11/23 12:40:55;;;;;;;3.78;2.65;;;9.90;99.90;;;;;;4994088;28;20211;-72
2021/11/23 12:43:23;;;;;;;5.72;2.75;;;9.90;99.90;;;;;;4997152;28;20215;-72
2021/11/23 12:45:50;;;;;;;4.03;3.03;;;9.90;99.90;;;;;;4996325;28;20273;-72
2021/11/23 12:48:32;;;;;;;2.67;2.30;;;9.80;99.90;;;;;;4999889;28;20535;-72
2021/11/23 12:50:59;;;;;;;2.55;2.00;;;9.80;99.90;;;;;;5010489;28;20215;-71
2021/11/23 12:53:26;;;;;;;2.90;2.70;;;9.80;99.90;;;;;;4997275;28;20200;-72
2021/11/23 12:55:54;;;;;;;2.95;1.75;;;9.80;99.90;;;;;;4991976;28;20299;-72
2021/11/23 12:58:20;;;;;;;2.33;2.22;;;9.80;99.90;;;;;;5005169;28;20253;-72
2021/11/23 13:00:47;;;;;;;2.30;1.60;;;9.90;99.90;;;;;;5006993;28;20266;-71
2021/11/23 13:03:14;;;;;;;4.57;2.40;;;9.90;99.90;;;;;;5010847;28;20282;-72
2021/11/23 13:05:43;;;;;;;2.38;1.77;;;10.00;99.90;;;;;;5009960;28;20226;-71
2021/11/23 13:08:16;;;;;;;1.83;1.73;;;10.10;99.90;;;;;;5011520;28;20214;-71
2021/11/23 13:10:44;;;;;;;5.00;3.30;;;10.20;99.90;;;;;;5011513;28;20382;-71
2021/11/23 13:13:13;;;;;;;5.40;4.90;;;10.20;99.90;;;;;;5013238;28;20207;-71
2021/11/23 13:15:41;;;;;;;3.78;1.83;;;10.20;99.90;;;;;;5010412;28;20281;-71
2021/11/23 13:18:09;;;;;;;2.22;2.05;;;10.10;99.90;;;;;;5008435;28;20227;-71
2021/11/23 13:20:39;;;;;;;2.80;1.65;;;10.00;99.90;;;;;;5009347;28;20203;-71
2021/11/23 13:23:21;;;;;;;2.58;2.10;;;10.00;99.90;;;;;;5008285;28;20214;-71
2021/11/23 13:25:50;;;;;;;4.00;1.85;;;10.00;99.90;;;;;;4992823;28;20272;-71
2021/11/23 13:28:17;;;;;;;4.00;1.75;;;9.90;99.90;;;;;;5002769;28;20208;-71
2021/11/23 13:30:51;;;;;;;5.25;1.50;;;9.90;99.90;;;;;;5013033;28;20222;-71
2021/11/23 13:33:21;;;;;;;1.67;1.58;;;9.90;99.90;;;;;;5014541;28;20297;-72
2021/11/23 13:36:04;;;;;;;1.63;1.52;;;9.90;99.90;;;;;;5013603;28;20261;-72
2021/11/23 13:38:41;;;;;;;3.90;1.95;;;10.00;99.90;;;;;;5000306;28;20310;-71
2021/11/23 13:41:27;;;;;;;9.85;1.52;;;10.00;99.90;;;;;;5016003;28;20535;-73
2021/11/23 13:43:57;;;;;;;2.40;1.48;;;10.10;99.90;;;;;;5006208;28;20232;-72
2021/11/23 13:46:25;;;;;;;1.48;1.35;;;10.10;99.90;;;;;;4999961;28;20223;-71
2021/11/23 13:49:02;;;;;;;2.10;1.90;;;10.10;99.90;;;;;;5001849;28;20224;-69
2021/11/23 13:51:29;;;;;;;1.85;1.40;;;10.20;99.90;;;;;;5001414;28;20218;-71
2021/11/23 13:54:00;;;;;;;2.17;1.05;;;10.20;99.90;;;;;;5011500;28;20273;-71
2021/11/23 13:56:30;;;;;;;2.75;1.75;;;10.20;99.90;;;;;;5017682;28;20574;-71
2021/11/23 13:59:00;;;;;;;1.00;1.00;;;10.20;99.90;;;;;;5007475;28;20337;-70
2021/11/23 14:01:34;;;;;;;3.15;1.25;;;10.20;99.90;;;;;;5008694;28;20209;-70
2021/11/23 14:04:11;;;;;;;1.95;1.20;;;10.20;99.90;;;;;;5014530;28;20280;-71
2021/11/23 14:07:04;;;;;;;4.15;1.40;;;10.10;99.90;;;;;;5014647;28;20345;-71
2021/11/23 14:09:57;;;;;;;1.10;1.10;;;10.00;99.90;;;;;;5016992;28;20319;-72
2021/11/23 14:12:30;;;;;;;4.03;1.42;;;10.00;99.90;;;;;;5017009;28;20299;-72
2021/11/23 14:15:02;;;;;;;1.77;1.77;;;9.90;99.90;;;;;;5016725;28;20235;-72
2021/11/23 14:17:54;;;;;;;2.92;1.85;;;9.80;99.90;;;;;;5002936;28;20208;-72
2021/11/23 14:20:22;;;;;;;4.90;2.03;;;9.80;99.90;;;;;;5013097;28;20295;-71
2021/11/23 14:22:49;;;;;;;2.10;1.52;;;9.70;99.90;;;;;;5013059;28;20422;-71
2021/11/23 14:25:22;;;;;;;1.70;1.52;;;9.70;99.90;;;;;;5012234;28;20305;-71
2021/11/23 14:27:51;;;;;;;3.22;2.65;;;9.70;99.90;;;;;;5012169;28;20294;-71
2021/11/23 14:30:18;;;;;;;4.00;2.15;;;9.70;99.90;;;;;;5012022;28;20253;-72
2021/11/23 14:32:45;;;;;;;3.03;2.38;;;9.70;99.90;;;;;;5011390;28;20305;-71
2021/11/23 14:35:12;;;;;;;5.03;1.80;;;9.60;99.90;;;;;;5012185;28;20285;-71
2021/11/23 14:37:40;;;;;;;2.20;1.55;;;9.60;99.90;;;;;;5012195;28;20294;-70
2021/11/23 14:40:07;;;;;;;2.25;2.00;;;9.60;99.90;;;;;;5012023;28;20206;-71
2021/11/23 14:42:35;;;;;;;6.82;1.98;;;9.50;99.90;;;;;;5011876;28;20586;-72
2021/11/23 14:45:03;;;;;;;2.40;2.25;;;9.50;99.90;;;;;;5012203;28;20231;-71
2021/11/23 14:47:30;;;;;;;2.55;2.03;;;9.50;99.90;;;;;;5010867;28;20230;-72
2021/11/23 14:49:56;;;;;;;4.15;3.85;;;9.50;99.90;;;;;;5009687;28;20725;-72
2021/11/23 14:52:23;;;;;;;1.52;1.45;;;9.50;99.90;;;;;;5012208;28;20271;-71
2021/11/23 14:54:50;;;;;;;2.13;2.00;;;9.50;99.90;;;;;;5011934;28;20230;-72
2021/11/23 14:57:19;;;;;;;3.65;1.88;;;9.40;99.90;;;;;;5011389;28;20208;-71
2021/11/23 14:59:47;;;;;;;3.10;2.90;;;9.40;99.90;;;;;;5011864;28;20555;-72
2021/11/23 15:02:15;;;;;;;4.55;2.17;;;9.40;99.90;;;;;;4995742;28;20533;-72
2021/11/23 15:04:42;;;;;;;4.38;3.30;;;9.40;99.90;;;;;;5009784;28;20234;-71
2021/11/23 15:07:08;;;;;;;2.50;1.80;;;9.30;99.90;;;;;;4994842;28;20226;-71
2021/11/23 15:09:35;;;;;;;2.70;2.50;;;9.20;99.90;;;;;;4992095;28;20200;-71
2021/11/23 15:12:02;;;;;;;3.25;2.60;;;9.20;99.90;;;;;;5009713;28;20229;-71
2021/11/23 15:14:29;;;;;;;2.42;2.15;;;9.10;99.90;;;;;;5002441;28;20650;-70
2021/11/23 15:16:57;;;;;;;2.13;1.90;;;9.10;99.90;;;;;;5008579;28;20730;-70
2021/11/23 15:19:24;;;;;;;8.95;2.78;;;9.00;99.90;;;;;;5000353;28;20552;-70
2021/11/23 15:21:51;;;;;;;4.63;2.03;;;9.00;99.90;;;;;;4991132;28;20572;-69
2021/11/23 15:24:18;;;;;;;3.35;2.60;;;8.90;99.90;;;;;;4998959;28;20227;-70
2021/11/23 15:26:45;;;;;;;4.25;2.58;;;8.90;99.90;;;;;;5000436;28;20304;-70
2021/11/23 15:29:12;;;;;;;2.70;2.47;;;8.90;99.90;;;;;;5008986;28;20207;-70
2021/11/23 15:31:38;;;;;;;3.20;2.97;;;8.80;99.90;;;;;;5001394;28;20680;-70
2021/11/23 15:34:07;;;;;;;5.15;3.25;;;8.80;99.90;;;;;;5008473;28;20707;-70
2021/11/23 15:36:34;;;;;;;5.75;3.65;;;8.70;99.90;;;;;;5003655;28;20192;-70
2021/11/23 15:39:01;;;;;;;6.18;3.72;;;8.70;99.90;;;;;;5006678;28;20207;-70
2021/11/23 15:41:27;;;;;;;7.72;3.10;;;8.70;99.90;;;;;;5009932;28;20199;-70
2021/11/23 15:43:54;;;;;;;13.02;4.28;;;8.70;99.90;;;;;;5001348;28;20697;-70
2021/11/23 15:46:21;;;;;;;5.25;4.20;;;8.70;99.90;;;;;;4993279;28;20289;-70
2021/11/23 15:48:48;;;;;;;4.90;4.45;;;8.60;99.90;;;;;;4997861;28;20561;-70
2021/11/23 15:51:16;;;;;;;8.65;5.38;;;8.70;99.90;;;;;;4993977;28;20235;-71
2021/11/23 15:53:43;;;;;;;6.07;4.80;;;8.60;99.90;;;;;;4991087;28;20215;-70
2021/11/23 15:56:12;;;;;;;8.23;6.47;;;8.60;99.90;;;;;;4994219;28;20282;-70
2021/11/23 15:58:38;;;;;;;7.65;4.25;;;8.50;99.90;;;;;;4991619;28;20207;-70
2021/11/23 16:01:05;;;;;;;4.63;4.05;;;8.50;99.90;;;;;;4993535;28;20289;-70
2021/11/23 16:03:32;;;;;;;6.38;4.30;;;8.50;99.90;;;;;;4991422;28;20231;-70
2021/11/23 16:05:59;;;;;;;12.70;5.32;;;8.50;99.90;;;;;;4996485;28;20239;-70
2021/11/23 16:08:29;;;;;;;7.45;4.03;;;8.50;99.90;;;;;;5009337;28;20265;-70
2021/11/23 16:10:56;;;;;;;5.28;4.38;;;8.40;99.90;;;;;;5005519;28;20250;-69
2021/11/23 16:13:23;;;;;;;4.70;4.20;;;8.40;99.90;;;;;;4990857;28;20238;-70
2021/11/23 16:15:50;;;;;;;6.05;4.00;;;8.40;99.90;;;;;;4993418;28;20234;-71
2021/11/23 16:18:17;;;;;;;10.98;3.50;;;8.30;99.90;;;;;;5002336;28;20562;-70
2021/11/23 16:20:43;;;;;;;4.80;4.00;;;8.30;99.90;;;;;;5003265;28;20258;-70
2021/11/23 16:23:10;;;;;;;9.05;4.20;;;8.30;99.90;;;;;;5009213;28;20203;-70
2021/11/23 16:25:38;;;;;;;4.68;3.88;;;8.20;99.90;;;;;;4992076;28;20286;-69
2021/11/23 16:28:05;;;;;;;4.10;3.80;;;8.20;99.90;;;;;;4999302;28;20226;-70
2021/11/23 16:30:32;;;;;;;4.97;4.45;;;8.20;99.90;;;;;;4992964;28;20208;-70
2021/11/23 16:32:58;;;;;;;3.67;3.33;;;8.10;99.90;;;;;;4997302;28;20211;-70
2021/11/23 16:35:29;;;;;;;8.23;3.72;;;8.10;99.90;;;;;;4994460;28;21039;-69
2021/11/23 16:37:56;;;;;;;4.57;3.45;;;8.00;99.90;;;;;;4997047;28;20203;-70
2021/11/23 16:40:23;;;;;;;5.38;3.58;;;8.00;99.90;;;;;;4996335;28;20247;-68
2021/11/23 16:42:52;;;;;;;4.18;3.38;;;8.00;99.90;;;;;;4998952;28;20617;-69
2021/11/23 16:45:19;;;;;;;6.60;5.00;;;8.00;99.90;;;;;;4996763;28;20294;-69
2021/11/23 16:47:47;;;;;;;5.90;5.00;;;7.90;99.90;;;;;;4995295;28;20750;-70
2021/11/23 16:50:14;;;;;;;5.82;5.22;;;8.00;99.90;;;;;;5002539;28;20235;-69
2021/11/23 16:52:41;;;;;;;9.10;7.15;;;7.90;99.90;;;;;;5013066;28;20254;-69
2021/11/23 16:55:10;;;;;;;5.80;5.30;;;7.90;99.90;;;;;;5000894;28;20281;-70
2021/11/23 16:57:37;;;;;;;7.85;5.65;;;7.90;99.90;;;;;;5013523;28;20294;-69
2021/11/23 17:00:12;;;;;;;8.52;5.57;;;7.90;99.90;;;;;;5000776;28;20239;-69
2021/11/23 17:02:38;;;;;;;3.72;3.42;;;7.90;99.90;;;;;;5006170;28;20637;-70
2021/11/23 17:05:06;;;;;;;5.00;4.18;;;7.90;99.90;;;;;;4994438;28;20283;-69
2021/11/23 17:07:32;;;;;;;8.32;4.55;;;7.80;99.90;;;;;;5002153;28;20265;-69
2021/11/23 17:09:59;;;;;;;6.03;3.78;;;7.80;99.90;;;;;;4997167;28;20219;-70
2021/11/23 17:12:26;;;;;;;4.40;4.10;;;7.80;99.90;;;;;;5010732;28;20675;-71
2021/11/23 17:14:52;;;;;;;6.97;4.22;;;7.80;99.90;;;;;;5013752;28;20277;-68
2021/11/23 17:17:21;;;;;;;4.70;4.30;;;7.80;99.90;;;;;;5004016;28;20208;-69
2021/11/23 17:19:47;;;;;;;8.38;4.68;;;7.80;99.90;;;;;;4997270;28;20203;-69
2021/11/23 17:22:14;;;;;;;9.85;7.15;;;7.80;99.90;;;;;;5011494;28;20207;-68
2021/11/23 17:24:41;;;;;;;8.57;6.22;;;7.80;99.90;;;;;;5013291;28;20230;-67
2021/11/23 17:27:08;;;;;;;6.22;5.03;;;7.80;99.90;;;;;;5007732;28;20270;-69
2021/11/23 17:29:35;;;;;;;5.57;4.70;;;7.80;99.90;;;;;;5009719;28;20224;-68
2021/11/23 17:32:03;;;;;;;5.82;5.00;;;7.80;99.90;;;;;;5011476;28;20293;-67
2021/11/23 17:34:32;;;;;;;4.90;4.60;;;7.90;99.90;;;;;;5012977;28;20326;-69
2021/11/23 17:37:00;;;;;;;6.20;5.00;;;7.90;99.90;;;;;;5001723;28;20203;-69
2021/11/23 17:39:28;;;;;;;5.20;4.70;;;7.90;99.90;;;;;;5010808;28;20207;-69
2021/11/23 17:41:55;;;;;;;8.80;5.72;;;7.90;99.90;;;;;;5010849;28;20203;-69
2021/11/23 17:44:22;;;;;;;7.43;5.30;;;7.90;99.90;;;;;;4994042;28;20236;-68
2021/11/23 17:46:48;;;;;;;4.63;4.32;;;7.90;99.90;;;;;;5002579;28;20231;-68
2021/11/23 17:49:15;;;;;;;5.95;5.13;;;7.80;99.90;;;;;;4996106;28;20663;-68
2021/11/23 17:51:43;;;;;;;6.63;5.30;;;7.80;99.90;;;;;;4996232;28;20316;-68
2021/11/23 17:54:10;;;;;;;5.93;5.38;;;7.80;99.90;;;;;;5010797;28;20231;-68
2021/11/23 17:56:36;;;;;;;9.77;8.43;;;7.70;99.90;;;;;;5006868;28;20203;-68
2021/11/23 17:59:04;;;;;;;11.57;6.45;;;7.70;99.90;;;;;;5007198;28;20207;-68
2021/11/23 18:01:30;;;;;;;8.35;5.57;;;7.70;99.90;;;;;;5011074;28;20568;-69
2021/11/23 18:03:58;;;;;;;7.95;5.15;;;7.70;99.90;;;;;;5012527;28;20220;-69